Time;durP1;ratioP1;P1;durP2;ratioP2;P2;SDS_P1;SDS_P2;PMS_P1;PMS_P2;Temp;Humidity;BMP_temperature;BMP_pressure;BME280_temperature;BME280_humidity;BME280_pressure;Samples;Min_cycle;Max_cycle;Signal;HPM_P1;HPM_P2
2023/12/12 00:01:33;;;;;;;4.53;2.63;;;;;;;9.08;75.97;95727.81;5008976;28;20180;-70
2023/12/12 00:03:59;;;;;;;6.33;3.23;;;;;;;9.04;76.76;95734.09;5008816;28;20695;-69
2023/12/12 00:06:24;;;;;;;4.37;3.27;;;;;;;9.04;76.34;95731.47;5008473;28;20168;-70
2023/12/12 00:08:50;;;;;;;2.50;2.20;;;;;;;9.06;76.66;95731.41;5009362;28;20937;-69
2023/12/12 00:11:15;;;;;;;4.03;2.77;;;;;;;8.99;76.65;95722.16;5008992;28;20176;-70
2023/12/12 00:13:40;;;;;;;5.10;3.60;;;;;;;9.19;76.13;95713.31;5008086;28;20176;-69
2023/12/12 00:16:07;;;;;;;8.20;3.23;;;;;;;9.04;76.22;95726.25;5005341;28;20211;-69
2023/12/12 00:18:34;;;;;;;3.43;2.70;;;;;;;9.10;76.36;95725.97;4987410;28;20200;-69
2023/12/12 00:21:00;;;;;;;9.80;3.47;;;;;;;9.02;76.75;95719.41;4987409;28;20937;-68
2023/12/12 00:23:25;;;;;;;8.77;3.10;;;;;;;9.04;76.55;95720.16;5003166;28;20443;-70
2023/12/12 00:25:50;;;;;;;3.93;3.13;;;;;;;8.97;76.83;95716.16;5006910;28;20874;-69
2023/12/12 00:28:16;;;;;;;8.60;2.43;;;;;;;9.02;76.98;95725.47;5006869;28;20257;-71
2023/12/12 00:30:41;;;;;;;5.10;2.60;;;;;;;8.94;76.76;95719.78;5006921;28;20179;-69
2023/12/12 00:33:07;;;;;;;6.03;2.50;;;;;;;8.95;77.13;95716.22;5002104;28;20595;-68
2023/12/12 00:35:32;;;;;;;3.30;2.20;;;;;;;8.95;77.29;95710.16;4987557;28;20223;-69
2023/12/12 00:37:58;;;;;;;5.20;2.37;;;;;;;8.97;77.05;95706.53;4987321;28;20200;-70
2023/12/12 00:40:23;;;;;;;4.53;2.67;;;;;;;8.96;77.32;95717.94;4988058;28;20169;-70
2023/12/12 00:42:48;;;;;;;7.23;2.50;;;;;;;8.96;76.75;95714.47;4986120;28;20249;-71
2023/12/12 00:45:14;;;;;;;3.10;2.37;;;;;;;8.99;76.94;95725.63;4986045;28;20165;-69
2023/12/12 00:47:40;;;;;;;11.60;3.93;;;;;;;9.05;76.71;95717.50;4987161;28;20187;-70
2023/12/12 00:50:06;;;;;;;5.87;2.50;;;;;;;9.01;76.84;95726.41;4989866;28;20191;-69
2023/12/12 00:52:31;;;;;;;3.23;2.00;;;;;;;9.01;76.51;95725.56;5007323;28;20170;-69
2023/12/12 00:55:00;;;;;;;6.73;2.57;;;;;;;8.99;76.58;95722.16;5006862;28;20463;-68
2023/12/12 00:57:26;;;;;;;4.07;2.70;;;;;;;8.99;77.07;95728.25;5006439;28;20569;-70
2023/12/12 00:59:54;;;;;;;4.70;3.20;;;;;;;8.98;77.16;95733.56;5006612;28;20414;-70
2023/12/12 01:02:23;;;;;;;6.27;2.77;;;;;;;9.00;77.04;95729.97;5006592;28;20249;-70
2023/12/12 01:04:48;;;;;;;5.90;3.23;;;;;;;9.03;76.84;95727.19;5006199;28;20462;-69
2023/12/12 01:07:14;;;;;;;3.57;2.70;;;;;;;8.98;77.09;95730.97;5006026;28;20514;-69
2023/12/12 01:09:39;;;;;;;3.70;2.47;;;;;;;8.96;76.94;95727.56;5006317;28;20651;-70
2023/12/12 01:12:05;;;;;;;7.73;2.77;;;;;;;9.04;76.56;95734.09;5006433;28;20228;-70
2023/12/12 01:14:31;;;;;;;3.57;2.20;;;;;;;9.04;76.99;95736.72;5005763;28;20204;-69
2023/12/12 01:16:57;;;;;;;2.47;1.97;;;;;;;9.04;77.02;95731.47;5005487;28;20266;-70
2023/12/12 01:19:22;;;;;;;12.17;3.07;;;;;;;9.03;77.01;95728.97;5006107;28;20415;-69
2023/12/12 01:21:48;;;;;;;4.47;2.90;;;;;;;9.02;76.57;95730.69;5003500;28;20172;-71
2023/12/12 01:24:13;;;;;;;10.00;2.47;;;;;;;8.96;77.33;95732.78;4986308;28;20172;-70
2023/12/12 01:26:38;;;;;;;9.43;2.93;;;;;;;8.94;77.21;95725.00;4986115;28;20703;-69
2023/12/12 01:29:04;;;;;;;6.33;2.13;;;;;;;8.88;77.51;95727.91;4985775;28;20180;-70
2023/12/12 01:31:29;;;;;;;4.90;2.27;;;;;;;8.75;77.46;95722.44;4986372;28;20560;-69
2023/12/12 01:33:54;;;;;;;5.40;2.63;;;;;;;8.78;78.53;95731.88;4997132;28;20651;-69
2023/12/12 01:36:20;;;;;;;10.33;2.77;;;;;;;8.76;77.92;95731.13;5005576;28;20172;-69
2023/12/12 01:38:45;;;;;;;4.57;2.23;;;;;;;8.77;77.85;95723.19;5006248;28;20192;-68
2023/12/12 01:41:11;;;;;;;3.27;2.60;;;;;;;8.80;77.84;95730.06;5005948;28;20227;-69
2023/12/12 01:43:37;;;;;;;6.40;2.60;;;;;;;8.98;77.11;95717.88;5005790;28;20191;-70
2023/12/12 01:46:06;;;;;;;5.47;2.47;;;;;;;8.89;77.29;95722.59;5005790;28;20411;-69
2023/12/12 01:48:33;;;;;;;6.43;2.13;;;;;;;8.95;77.67;95725.84;5005490;28;20211;-69
2023/12/12 01:50:59;;;;;;;4.13;2.80;;;;;;;8.95;77.62;95725.84;5005538;28;20422;-69
2023/12/12 01:53:29;;;;;;;3.43;2.43;;;;;;;8.98;77.18;95707.41;5005890;28;20415;-69
2023/12/12 01:55:57;;;;;;;4.27;2.70;;;;;;;9.03;77.19;95703.63;5005768;28;20451;-69
2023/12/12 01:58:24;;;;;;;2.47;2.10;;;;;;;8.95;77.51;95692.66;5005243;28;20522;-69
2023/12/12 02:00:50;;;;;;;3.90;2.43;;;;;;;8.92;77.13;95695.44;5005505;28;20407;-69
2023/12/12 02:03:16;;;;;;;4.73;2.80;;;;;;;8.86;77.55;95698.38;5005178;28;20408;-69
2023/12/12 02:05:43;;;;;;;2.20;2.00;;;;;;;8.86;77.12;95695.75;5005459;28;20254;-70
2023/12/12 02:08:09;;;;;;;4.43;2.30;;;;;;;8.87;77.39;95698.28;5005239;28;20434;-70
2023/12/12 02:10:34;;;;;;;6.60;2.90;;;;;;;8.77;77.29;95706.66;5005540;28;20403;-69
2023/12/12 02:13:00;;;;;;;3.10;2.80;;;;;;;8.83;77.98;95704.56;5005519;28;20176;-69
2023/12/12 02:15:26;;;;;;;4.00;2.90;;;;;;;8.75;77.66;95711.97;5005468;28;20215;-69
2023/12/12 02:17:51;;;;;;;4.73;2.90;;;;;;;8.59;77.89;95708.38;4989548;28;20444;-69
2023/12/12 02:20:17;;;;;;;3.97;2.53;;;;;;;8.57;78.20;95718.06;4985914;28;20272;-68
2023/12/12 02:22:44;;;;;;;3.90;2.83;;;;;;;8.55;78.30;95715.53;4995437;28;20215;-68
2023/12/12 02:25:09;;;;;;;6.10;2.60;;;;;;;8.54;78.46;95705.97;5005265;28;20172;-68
2023/12/12 02:27:37;;;;;;;5.77;2.70;;;;;;;8.50;78.43;95714.03;5005367;28;20799;-69
2023/12/12 02:30:05;;;;;;;4.03;3.10;;;;;;;8.46;78.66;95711.56;5005502;28;20647;-69
2023/12/12 02:32:30;;;;;;;6.70;2.93;;;;;;;8.50;78.84;95714.88;5005458;28;20422;-69
2023/12/12 02:34:56;;;;;;;4.00;3.23;;;;;;;8.57;78.69;95716.28;4985993;28;20475;-69
2023/12/12 02:37:21;;;;;;;2.90;2.60;;;;;;;8.62;78.43;95708.22;4985720;28;20588;-69
2023/12/12 02:39:47;;;;;;;6.30;4.00;;;;;;;8.61;77.91;95702.16;4986973;28;20215;-69
2023/12/12 02:42:12;;;;;;;4.43;3.20;;;;;;;8.65;78.41;95693.25;4989290;28;20201;-69
2023/12/12 02:44:37;;;;;;;5.30;3.60;;;;;;;8.60;78.36;95676.94;4988999;28;20851;-70
2023/12/12 02:47:03;;;;;;;5.97;2.97;;;;;;;8.64;77.78;95683.69;4988832;28;20197;-70
2023/12/12 02:49:28;;;;;;;5.30;2.93;;;;;;;8.59;78.08;95677.84;4987569;28;20683;-70
2023/12/12 02:51:54;;;;;;;4.90;3.33;;;;;;;8.60;77.62;95673.47;5006387;28;20661;-70
2023/12/12 02:54:19;;;;;;;5.00;3.63;;;;;;;8.52;78.69;95686.03;5008369;28;20216;-70
2023/12/12 02:56:44;;;;;;;6.10;3.97;;;;;;;8.39;78.65;95683.16;5008348;28;20265;-70
2023/12/12 02:59:10;;;;;;;4.43;3.27;;;;;;;8.38;78.68;95691.88;5008471;28;20175;-70
2023/12/12 03:01:35;;;;;;;4.23;3.13;;;;;;;8.32;78.90;95690.41;5008298;28;20176;-70
2023/12/12 03:04:01;;;;;;;4.60;3.80;;;;;;;8.32;79.45;95706.09;5008410;28;20172;-70
2023/12/12 03:06:26;;;;;;;3.43;3.00;;;;;;;8.27;79.35;95695.84;5009337;28;20169;-70
2023/12/12 03:08:51;;;;;;;4.57;3.53;;;;;;;8.27;78.96;95703.69;5008620;28;20535;-70
2023/12/12 03:11:17;;;;;;;6.13;3.77;;;;;;;8.36;78.59;95701.56;5008343;28;20176;-70
2023/12/12 03:13:42;;;;;;;3.53;3.23;;;;;;;8.33;78.64;95699.09;5007964;28;20183;-69
2023/12/12 03:16:07;;;;;;;5.60;3.80;;;;;;;8.24;79.28;95693.41;5007845;28;20211;-70
2023/12/12 03:18:33;;;;;;;5.73;4.00;;;;;;;8.28;78.85;95710.59;5008321;28;20192;-70
2023/12/12 03:21:00;;;;;;;4.07;3.47;;;;;;;8.28;78.65;95700.16;5008487;28;20172;-70
2023/12/12 03:23:25;;;;;;;7.53;4.77;;;;;;;8.21;78.94;95690.91;5008259;28;20219;-70
2023/12/12 03:25:50;;;;;;;5.87;3.67;;;;;;;8.24;79.18;95702.97;5008177;28;20415;-70
2023/12/12 03:28:16;;;;;;;8.43;4.70;;;;;;;8.26;78.20;95701.97;5007945;28;20196;-70
2023/12/12 03:30:41;;;;;;;5.03;3.63;;;;;;;8.34;78.24;95699.03;5008081;28;20176;-70
2023/12/12 03:33:07;;;;;;;5.07;3.40;;;;;;;8.30;78.78;95692.25;5003668;28;20513;-70
2023/12/12 03:35:32;;;;;;;7.90;3.67;;;;;;;8.27;78.71;95695.84;4988428;28;20216;-70
2023/12/12 03:37:58;;;;;;;4.23;3.77;;;;;;;8.27;78.44;95698.47;4988730;28;20189;-70
2023/12/12 03:40:24;;;;;;;6.43;3.53;;;;;;;8.23;78.47;95702.13;4988716;28;20680;-70
2023/12/12 03:42:49;;;;;;;8.40;4.40;;;;;;;8.32;78.46;95686.97;4989194;28;20204;-70
2023/12/12 03:45:15;;;;;;;5.20;3.77;;;;;;;8.25;78.97;95674.16;4991976;28;20884;-70
2023/12/12 03:47:40;;;;;;;6.13;4.20;;;;;;;8.17;78.70;95676.28;4994744;28;20200;-70
2023/12/12 03:50:06;;;;;;;5.13;3.67;;;;;;;8.17;79.10;95673.69;4992948;28;20838;-70
2023/12/12 03:52:32;;;;;;;9.00;4.93;;;;;;;8.24;78.35;95671.59;5014400;28;20202;-70
2023/12/12 03:54:57;;;;;;;7.73;5.10;;;;;;;8.13;79.51;95672.13;5017676;28;20295;-70
2023/12/12 03:57:22;;;;;;;9.53;5.20;;;;;;;8.21;78.49;95672.59;5015964;28;20202;-71
2023/12/12 03:59:48;;;;;;;9.57;5.07;;;;;;;8.16;79.07;95676.34;5010252;28;20180;-70
2023/12/12 04:02:14;;;;;;;5.93;5.00;;;;;;;8.11;78.83;95673.97;5007386;28;20563;-69
2023/12/12 04:04:39;;;;;;;8.30;5.17;;;;;;;8.19;79.52;95673.59;5007127;28;20274;-69
2023/12/12 04:07:05;;;;;;;5.30;4.70;;;;;;;8.17;79.39;95676.28;5007224;28;20215;-68
2023/12/12 04:09:30;;;;;;;6.00;5.40;;;;;;;8.19;78.84;95673.59;5007205;28;20211;-70
2023/12/12 04:11:56;;;;;;;5.90;4.77;;;;;;;8.17;79.21;95662.34;5007371;28;20187;-68
2023/12/12 04:14:21;;;;;;;6.50;5.43;;;;;;;8.10;78.81;95663.56;5007462;28;20711;-70
2023/12/12 04:16:47;;;;;;;7.30;4.80;;;;;;;8.06;78.56;95650.66;5007222;28;20234;-70
2023/12/12 04:19:12;;;;;;;9.10;5.90;;;;;;;8.02;79.37;95645.63;5007613;28;20220;-70
2023/12/12 04:21:41;;;;;;;5.67;5.07;;;;;;;8.05;79.24;95654.19;5006130;28;20176;-69
2023/12/12 04:24:07;;;;;;;5.90;5.30;;;;;;;8.00;79.35;95648.31;4987867;28;20169;-69
2023/12/12 04:26:32;;;;;;;9.50;4.90;;;;;;;8.05;78.50;95643.75;4987095;28;20786;-70
2023/12/12 04:28:57;;;;;;;5.70;5.00;;;;;;;8.06;78.69;95644.59;4986977;28;20192;-70
2023/12/12 04:31:23;;;;;;;9.63;5.17;;;;;;;8.13;78.23;95646.00;4987340;28;20177;-70
2023/12/12 04:33:48;;;;;;;8.20;5.57;;;;;;;8.06;78.56;95648.03;4997568;28;20183;-70
2023/12/12 04:36:14;;;;;;;6.43;5.80;;;;;;;8.16;78.50;95648.44;5006692;28;20180;-68
2023/12/12 04:38:39;;;;;;;7.03;5.57;;;;;;;8.04;78.84;95638.56;5006824;28;20203;-70
2023/12/12 04:41:05;;;;;;;8.60;5.50;;;;;;;7.80;79.75;95641.38;5006926;28;20176;-70
2023/12/12 04:43:31;;;;;;;7.10;5.77;;;;;;;7.88;79.40;95633.19;5006859;28;20266;-70
2023/12/12 04:45:56;;;;;;;7.13;5.60;;;;;;;7.72;79.82;95627.81;5006728;28;20738;-70
2023/12/12 04:48:21;;;;;;;7.07;6.37;;;;;;;7.66;80.97;95637.72;5006339;28;20203;-70
2023/12/12 04:50:47;;;;;;;8.40;6.20;;;;;;;7.89;80.23;95639.25;5006417;28;20547;-70
2023/12/12 04:53:12;;;;;;;8.17;5.87;;;;;;;7.97;79.77;95637.16;5006589;28;20172;-69
2023/12/12 04:55:38;;;;;;;9.30;6.57;;;;;;;7.96;79.65;95640.69;5006513;28;20911;-69
2023/12/12 04:58:04;;;;;;;5.93;5.33;;;;;;;8.05;79.58;95642.88;4999817;28;20231;-68
2023/12/12 05:00:29;;;;;;;6.87;5.53;;;;;;;7.94;79.32;95639.94;5005249;28;20431;-70
2023/12/12 05:02:55;;;;;;;7.60;6.07;;;;;;;8.04;79.42;95642.03;5005114;28;20176;-70
2023/12/12 05:05:20;;;;;;;7.00;5.57;;;;;;;7.79;80.61;95633.59;5006585;28;20258;-71
2023/12/12 05:07:45;;;;;;;6.80;6.00;;;;;;;7.62;80.58;95637.81;5006409;28;20695;-68
2023/12/12 05:10:11;;;;;;;7.83;6.23;;;;;;;7.50;81.49;95634.91;5006193;28;20176;-68
2023/12/12 05:12:36;;;;;;;7.37;6.50;;;;;;;7.64;80.83;95627.31;5006092;28;20176;-69
2023/12/12 05:15:02;;;;;;;7.73;5.37;;;;;;;7.52;81.98;95626.09;5007483;28;20291;-70
2023/12/12 05:17:27;;;;;;;11.03;6.10;;;;;;;7.63;81.44;95615.19;5006629;28;20239;-71
2023/12/12 05:19:53;;;;;;;11.83;6.70;;;;;;;7.66;80.69;95615.03;5006270;28;20266;-70
2023/12/12 05:22:18;;;;;;;10.10;5.50;;;;;;;7.33;82.46;95614.78;4999433;28;20177;-70
2023/12/12 05:24:43;;;;;;;5.43;4.93;;;;;;;7.61;80.91;95614.41;4984482;28;20173;-69
2023/12/12 05:27:09;;;;;;;6.83;5.97;;;;;;;7.55;81.47;95612.91;4985665;28;20199;-66
2023/12/12 05:29:35;;;;;;;8.50;6.70;;;;;;;7.61;81.15;95624.84;5005133;28;20172;-69
2023/12/12 05:32:02;;;;;;;12.27;6.97;;;;;;;7.49;82.22;95625.38;5005385;28;20727;-68
2023/12/12 05:34:28;;;;;;;10.20;5.93;;;;;;;7.62;82.02;95626.53;5002674;28;20596;-69
2023/12/12 05:36:53;;;;;;;10.10;6.97;;;;;;;7.71;81.65;95631.34;4993081;28;20529;-68
2023/12/12 05:39:18;;;;;;;7.27;6.57;;;;;;;7.73;80.90;95624.28;4985575;28;20266;-68
2023/12/12 05:41:44;;;;;;;8.47;7.33;;;;;;;7.64;81.37;95625.53;4992726;28;20176;-68
2023/12/12 05:44:09;;;;;;;9.67;6.83;;;;;;;7.66;81.64;95612.44;4998629;28;20229;-68
2023/12/12 05:46:35;;;;;;;7.97;6.50;;;;;;;7.66;81.08;95607.22;5000626;28;20187;-67
2023/12/12 05:49:00;;;;;;;9.23;6.40;;;;;;;7.88;80.44;95620.13;4999439;28;20267;-67
2023/12/12 05:51:26;;;;;;;10.03;7.50;;;;;;;8.03;79.89;95621.19;4996446;28;20188;-69
2023/12/12 05:53:52;;;;;;;9.93;6.83;;;;;;;8.03;80.03;95606.38;5000756;28;20241;-66
2023/12/12 05:56:18;;;;;;;10.07;6.70;;;;;;;8.12;78.81;95602.47;4995230;28;20187;-68
2023/12/12 05:58:43;;;;;;;9.20;6.57;;;;;;;7.97;80.05;95613.66;4994404;28;20196;-67
2023/12/12 06:01:09;;;;;;;11.63;6.40;;;;;;;8.07;79.53;95599.22;4993530;28;20427;-68
2023/12/12 06:03:34;;;;;;;9.00;7.87;;;;;;;7.99;79.51;95598.75;5000440;28;20172;-68
2023/12/12 06:06:02;;;;;;;17.33;6.40;;;;;;;7.83;80.69;95593.38;4998411;28;20184;-67
2023/12/12 06:08:27;;;;;;;9.10;6.87;;;;;;;7.74;80.43;95588.56;4998136;28;20200;-69
2023/12/12 06:10:53;;;;;;;9.47;7.57;;;;;;;7.77;80.75;95588.44;5000492;28;20475;-69
2023/12/12 06:13:18;;;;;;;9.40;7.00;;;;;;;7.90;80.43;95586.13;5001214;28;20195;-68
2023/12/12 06:15:43;;;;;;;7.87;6.63;;;;;;;7.99;80.12;95572.63;5006039;28;20694;-69
2023/12/12 06:18:09;;;;;;;8.93;7.60;;;;;;;8.07;79.08;95571.31;5001420;28;20201;-68
2023/12/12 06:20:35;;;;;;;12.83;8.33;;;;;;;8.17;79.37;95582.22;5004363;28;20184;-66
2023/12/12 06:23:00;;;;;;;9.50;6.77;;;;;;;8.22;79.33;95580.22;4988202;28;20173;-68
2023/12/12 06:25:26;;;;;;;11.83;7.70;;;;;;;8.18;79.27;95577.81;4987899;28;20853;-68
2023/12/12 06:27:52;;;;;;;10.43;9.17;;;;;;;8.19;79.38;95580.34;4987843;28;20573;-69
2023/12/12 06:30:18;;;;;;;9.80;8.80;;;;;;;8.14;78.98;95579.72;5002925;28;20489;-70
2023/12/12 06:32:45;;;;;;;12.30;10.10;;;;;;;7.71;80.99;95592.19;4998033;28;20422;-69
2023/12/12 06:35:11;;;;;;;11.70;9.60;;;;;;;7.89;80.62;95590.50;4993977;28;20231;-68
2023/12/12 06:37:37;;;;;;;15.27;9.67;;;;;;;8.06;80.74;95593.16;4998028;28;20499;-68
2023/12/12 06:40:03;;;;;;;10.10;8.17;;;;;;;8.07;79.72;95609.69;4987938;28;20435;-69
2023/12/12 06:42:30;;;;;;;10.73;9.20;;;;;;;8.18;79.94;95606.56;4988915;28;20243;-70
2023/12/12 06:44:55;;;;;;;9.27;7.70;;;;;;;8.09;79.83;95605.22;5002410;28;20510;-68
2023/12/12 06:47:22;;;;;;;9.40;7.60;;;;;;;8.20;80.00;95602.13;5004487;28;20966;-69
2023/12/12 06:49:48;;;;;;;9.63;8.63;;;;;;;8.05;79.83;95601.94;4998441;28;20215;-70
2023/12/12 06:52:13;;;;;;;15.93;8.43;;;;;;;8.17;79.58;95604.88;5005634;28;20439;-67
2023/12/12 06:54:39;;;;;;;11.20;9.97;;;;;;;8.35;80.02;95606.59;5004442;28;20238;-68
2023/12/12 06:57:04;;;;;;;13.57;9.93;;;;;;;8.43;78.91;95596.69;4999859;28;20207;-67
2023/12/12 06:59:30;;;;;;;8.50;7.60;;;;;;;8.31;78.74;95591.97;5005093;28;20708;-70
2023/12/12 07:01:56;;;;;;;13.73;8.13;;;;;;;8.40;78.54;95588.97;5004342;28;20351;-69
2023/12/12 07:04:21;;;;;;;11.50;7.30;;;;;;;8.38;78.59;95582.94;5008117;28;20172;-69
2023/12/12 07:06:46;;;;;;;8.03;7.23;;;;;;;8.39;79.20;95566.34;5007700;28;20257;-67
2023/12/12 07:09:12;;;;;;;9.23;8.30;;;;;;;8.41;78.79;95558.44;4993838;28;20529;-68
2023/12/12 07:11:38;;;;;;;10.80;7.43;;;;;;;8.28;79.39;95553.78;4988718;28;20239;-68
2023/12/12 07:14:04;;;;;;;9.80;8.10;;;;;;;8.25;78.91;95556.53;4988257;28;20177;-67
2023/12/12 07:16:29;;;;;;;8.63;7.70;;;;;;;8.22;79.59;95541.03;4995601;28;20196;-68
2023/12/12 07:18:55;;;;;;;12.90;7.53;;;;;;;8.38;82.86;95540.25;5000175;28;20188;-68
2023/12/12 07:21:21;;;;;;;53.53;8.60;;;;;;;11.13;85.61;95530.63;4996435;28;20187;-69
2023/12/12 07:23:48;;;;;;;12.20;5.03;;;;;;;12.16;80.69;95535.63;5007413;28;20643;-67
2023/12/12 07:26:16;;;;;;;10.90;6.50;;;;;;;12.57;75.39;95526.84;5006544;28;20439;-67
2023/12/12 07:28:41;;;;;;;15.70;8.10;;;;;;;10.98;67.67;95549.00;5007981;28;20438;-68
2023/12/12 07:31:09;;;;;;;11.47;8.90;;;;;;;10.89;70.22;95553.91;5007865;28;20461;-68
2023/12/12 07:33:35;;;;;;;10.77;8.20;;;;;;;10.42;71.11;95558.38;4999368;28;20693;-69
2023/12/12 07:36:01;;;;;;;9.77;8.17;;;;;;;10.22;71.47;95563.84;4999421;28;20471;-68
2023/12/12 07:38:26;;;;;;;9.73;8.10;;;;;;;9.28;74.26;95585.47;4991779;28;20283;-69
2023/12/12 07:40:51;;;;;;;17.13;9.17;;;;;;;8.91;76.51;95576.03;4988385;28;20757;-68
2023/12/12 07:43:17;;;;;;;10.23;8.43;;;;;;;8.69;77.10;95569.25;4988553;28;20708;-69
2023/12/12 07:45:42;;;;;;;11.93;7.77;;;;;;;8.59;77.98;95567.16;5002139;28;20223;-68
2023/12/12 07:48:07;;;;;;;11.93;10.20;;;;;;;8.57;77.98;95580.28;4996010;28;20304;-69
2023/12/12 07:50:33;;;;;;;11.10;9.00;;;;;;;8.55;77.78;95587.41;5001957;28;20168;-67
2023/12/12 07:52:58;;;;;;;11.07;8.50;;;;;;;8.62;78.61;95578.31;5007258;28;20250;-68
2023/12/12 07:55:24;;;;;;;12.33;11.00;;;;;;;8.57;77.79;95580.28;5007155;28;20204;-68
2023/12/12 07:57:50;;;;;;;11.13;8.90;;;;;;;8.69;77.14;95579.72;5006883;28;20275;-67
2023/12/12 08:00:15;;;;;;;12.10;9.00;;;;;;;8.64;78.21;95579.06;5007471;28;20271;-68
2023/12/12 08:02:40;;;;;;;9.97;8.47;;;;;;;8.54;78.17;95575.22;4989355;28;20239;-68
2023/12/12 08:05:06;;;;;;;10.20;9.17;;;;;;;8.57;78.50;95582.91;4989964;28;20659;-68
2023/12/12 08:07:32;;;;;;;14.97;9.20;;;;;;;8.57;78.47;95582.91;4995520;28;20185;-69
2023/12/12 08:09:57;;;;;;;12.93;9.27;;;;;;;8.67;77.86;95580.72;4996657;28;20180;-68
2023/12/12 08:12:23;;;;;;;17.93;12.37;;;;;;;8.65;78.05;95580.78;5007265;28;20635;-68
2023/12/12 08:14:49;;;;;;;20.43;14.00;;;;;;;8.60;78.59;95574.94;4992744;28;20196;-68
2023/12/12 08:17:14;;;;;;;13.97;9.70;;;;;;;8.62;79.05;95572.22;4999015;28;20617;-68
2023/12/12 08:19:40;;;;;;;12.47;9.30;;;;;;;8.69;78.13;95566.63;5009155;28;20195;-67
2023/12/12 08:22:05;;;;;;;24.27;10.27;;;;;;;8.64;78.34;95560.75;5006561;28;20203;-68
2023/12/12 08:24:31;;;;;;;14.67;11.40;;;;;;;8.77;78.13;95565.41;5007448;28;20756;-68
2023/12/12 08:26:56;;;;;;;12.47;9.83;;;;;;;8.86;77.64;95559.72;5008373;28;20667;-68
2023/12/12 08:29:22;;;;;;;16.10;9.00;;;;;;;8.74;78.65;95552.47;5006958;28;20172;-68
2023/12/12 08:31:47;;;;;;;13.67;9.83;;;;;;;8.65;79.14;95557.25;5006911;28;20579;-68
2023/12/12 08:34:12;;;;;;;9.93;8.93;;;;;;;8.59;79.39;95562.75;5008321;28;20199;-68
2023/12/12 08:36:38;;;;;;;11.30;9.80;;;;;;;8.45;79.95;95557.38;5009789;28;20766;-68
2023/12/12 08:39:07;;;;;;;16.80;8.90;;;;;;;8.19;80.83;95559.44;5009751;28;20179;-68
2023/12/12 08:41:37;;;;;;;10.07;8.27;;;;;;;8.47;80.30;95558.97;5009153;28;20176;-68
2023/12/12 08:44:02;;;;;;;12.10;8.57;;;;;;;8.61;79.46;95562.69;5007777;28;20411;-68
2023/12/12 08:46:28;;;;;;;13.80;8.17;;;;;;;8.65;79.81;95562.47;5006459;28;20418;-68
2023/12/12 08:48:55;;;;;;;9.80;7.50;;;;;;;8.65;79.61;95562.47;5006351;28;20267;-68
2023/12/12 08:51:21;;;;;;;13.70;8.97;;;;;;;8.72;79.16;95556.91;4993681;28;20176;-68
2023/12/12 08:53:46;;;;;;;10.27;8.40;;;;;;;8.78;79.79;95543.53;4988604;28;20440;-68
2023/12/12 08:56:14;;;;;;;11.03;7.67;;;;;;;8.84;79.11;95540.63;4998141;28;20467;-68
2023/12/12 08:58:40;;;;;;;11.63;8.27;;;;;;;8.77;79.03;95534.00;4999657;28;20196;-68
2023/12/12 09:01:05;;;;;;;7.83;6.83;;;;;;;8.76;79.44;95525.28;4998161;28;20419;-69
2023/12/12 09:03:31;;;;;;;11.73;7.00;;;;;;;8.82;80.14;95535.47;4987549;28;20189;-68
2023/12/12 09:05:56;;;;;;;11.50;6.20;;;;;;;8.81;79.46;95519.81;4993319;28;20169;-68
2023/12/12 09:08:21;;;;;;;8.97;6.37;;;;;;;8.86;79.17;95507.38;4989253;28;20192;-68
2023/12/12 09:10:47;;;;;;;6.10;4.87;;;;;;;8.89;79.72;95496.75;4987809;28;20172;-68
2023/12/12 09:13:12;;;;;;;7.90;5.60;;;;;;;8.83;80.02;95486.59;4987532;28;20223;-67
2023/12/12 09:15:38;;;;;;;9.63;5.70;;;;;;;8.83;79.60;95490.03;4987146;28;20236;-67
2023/12/12 09:18:03;;;;;;;6.93;4.93;;;;;;;8.91;79.43;95484.44;5004202;28;20207;-68
2023/12/12 09:20:28;;;;;;;7.77;4.63;;;;;;;8.87;80.26;95475.88;5006690;28;20171;-67
2023/12/12 09:22:54;;;;;;;4.80;4.30;;;;;;;8.87;80.60;95472.44;4995344;28;20231;-68
2023/12/12 09:25:20;;;;;;;7.10;5.17;;;;;;;8.93;80.20;95466.03;4986651;28;20675;-68
2023/12/12 09:27:45;;;;;;;13.73;4.93;;;;;;;8.89;80.51;95471.44;4986458;28;20644;-66
2023/12/12 09:30:11;;;;;;;5.53;4.37;;;;;;;9.06;79.79;95473.16;4986479;28;20274;-69
2023/12/12 09:32:37;;;;;;;7.03;4.57;;;;;;;9.16;79.50;95478.75;4986119;28;20184;-68
2023/12/12 09:35:03;;;;;;;9.00;5.40;;;;;;;9.23;79.89;95477.50;4986009;28;20459;-69
2023/12/12 09:37:29;;;;;;;15.10;4.77;;;;;;;9.22;79.88;95472.34;4985886;28;20802;-66
2023/12/12 09:39:55;;;;;;;18.23;6.50;;;;;;;9.12;80.68;95466.78;4986069;28;20412;-68
2023/12/12 09:42:23;;;;;;;19.67;6.67;;;;;;;9.09;81.06;95467.78;4985762;28;20173;-67
2023/12/12 09:44:58;;;;;;;16.20;5.83;;;;;;;9.17;80.55;95475.22;4986107;28;20435;-67
2023/12/12 09:47:26;;;;;;;8.47;5.17;;;;;;;9.19;80.88;95493.44;4985411;28;20438;-67
2023/12/12 09:49:54;;;;;;;8.50;5.13;;;;;;;9.28;80.48;95491.22;4984366;28;20507;-68
2023/12/12 09:52:20;;;;;;;6.57;4.30;;;;;;;9.29;80.30;95487.66;5005565;28;20407;-68
2023/12/12 09:54:47;;;;;;;9.10;4.60;;;;;;;9.31;79.88;95501.50;5005312;28;20531;-68
2023/12/12 09:57:16;;;;;;;10.60;5.20;;;;;;;9.28;80.10;95504.28;5005035;28;20882;-68
2023/12/12 09:59:41;;;;;;;5.20;4.70;;;;;;;9.33;79.66;95501.44;5005554;28;20410;-69
2023/12/12 10:02:08;;;;;;;7.53;5.40;;;;;;;9.31;80.03;95491.03;5005783;28;20473;-68
2023/12/12 10:04:33;;;;;;;10.20;4.80;;;;;;;9.34;79.92;95474.31;5005313;28;20232;-68
2023/12/12 10:07:03;;;;;;;7.73;4.73;;;;;;;9.29;80.19;95455.41;5005220;28;20994;-68
2023/12/12 10:09:31;;;;;;;9.33;5.70;;;;;;;9.32;80.08;95466.53;5005302;28;20180;-67
2023/12/12 10:11:56;;;;;;;16.77;6.27;;;;;;;9.31;80.73;95461.41;5005776;28;20422;-68
2023/12/12 10:14:40;;;;;;;15.43;6.10;;;;;;;9.29;80.76;95460.63;5005533;28;20442;-70
2023/12/12 10:17:10;;;;;;;14.63;5.53;;;;;;;9.36;80.61;95451.50;4996330;28;20278;-69
2023/12/12 10:19:36;;;;;;;14.40;5.17;;;;;;;9.40;80.36;95458.28;4985930;28;20419;-69
2023/12/12 10:22:05;;;;;;;17.23;6.37;;;;;;;9.32;81.06;95456.06;4990039;28;20702;-66
2023/12/12 10:24:30;;;;;;;6.20;5.00;;;;;;;9.28;81.47;95445.84;5005060;28;20506;-68
2023/12/12 10:26:56;;;;;;;6.40;4.60;;;;;;;9.27;81.45;95445.00;5004938;28;20525;-68
2023/12/12 10:29:22;;;;;;;7.20;5.20;;;;;;;9.34;81.81;95440.28;5005223;28;20172;-69
2023/12/12 10:31:48;;;;;;;5.10;4.20;;;;;;;9.27;81.60;95438.91;5005246;28;20478;-69
2023/12/12 10:34:17;;;;;;;6.20;4.67;;;;;;;9.24;82.11;95441.72;5004991;28;20211;-68
2023/12/12 10:36:42;;;;;;;7.10;4.97;;;;;;;9.26;82.29;95439.81;5005010;28;20443;-68
2023/12/12 10:39:15;;;;;;;6.30;5.67;;;;;;;9.18;82.79;95432.41;5004862;28;20407;-68
2023/12/12 10:41:51;;;;;;;7.43;4.70;;;;;;;9.25;82.41;95428.53;5005208;28;20173;-68
2023/12/12 10:44:21;;;;;;;14.30;5.60;;;;;;;9.33;82.80;95421.09;5004885;28;20411;-69
2023/12/12 10:46:51;;;;;;;7.87;5.73;;;;;;;9.31;82.46;95419.50;5005043;28;20419;-66
2023/12/12 10:49:17;;;;;;;8.43;5.90;;;;;;;9.30;82.94;95412.56;5005008;28;20411;-67
2023/12/12 10:51:44;;;;;;;7.40;5.80;;;;;;;9.28;82.74;95415.28;4989259;28;20422;-67
2023/12/12 10:54:11;;;;;;;10.40;5.93;;;;;;;9.28;83.23;95412.66;4985832;28;20824;-68
2023/12/12 10:56:37;;;;;;;6.77;5.47;;;;;;;9.36;82.99;95407.00;4985553;28;20834;-67
2023/12/12 10:59:05;;;;;;;12.20;5.97;;;;;;;9.31;83.35;95409.03;4985391;28;21280;-67
2023/12/12 11:01:31;;;;;;;12.13;6.53;;;;;;;9.35;83.04;95412.31;4987964;28;21078;-68
2023/12/12 11:03:58;;;;;;;11.53;5.50;;;;;;;9.34;83.42;95395.75;4989087;28;20450;-69
2023/12/12 11:06:24;;;;;;;5.50;5.00;;;;;;;9.60;82.47;95390.84;4989785;28;20408;-68
2023/12/12 11:08:52;;;;;;;6.63;6.03;;;;;;;9.37;83.47;95389.50;4989655;28;20511;-69
2023/12/12 11:11:20;;;;;;;9.20;5.67;;;;;;;9.26;83.91;95396.19;4989028;28;20907;-69
2023/12/12 11:13:47;;;;;;;13.30;6.43;;;;;;;9.49;83.60;95397.53;4996608;28;20474;-67
2023/12/12 11:16:13;;;;;;;8.37;6.13;;;;;;;9.46;83.25;95387.22;5006102;28;20455;-71
2023/12/12 11:18:42;;;;;;;11.53;5.80;;;;;;;9.50;83.20;95388.75;4989257;28;21112;-69
2023/12/12 11:21:08;;;;;;;7.33;5.33;;;;;;;9.42;83.98;95385.69;4990005;28;20466;-69
2023/12/12 11:23:42;;;;;;;7.33;5.00;;;;;;;9.33;83.93;95387.06;5004308;28;20408;-68
2023/12/12 11:26:15;;;;;;;5.93;4.73;;;;;;;9.37;83.57;95390.34;5010928;28;20920;-69
2023/12/12 11:28:40;;;;;;;10.63;5.37;;;;;;;9.55;82.83;95383.25;5008116;28;20945;-69
2023/12/12 11:31:07;;;;;;;10.63;5.60;;;;;;;9.42;83.14;95379.63;5008065;28;20454;-67
2023/12/12 11:33:54;;;;;;;11.13;5.00;;;;;;;9.25;83.92;95372.72;5008255;28;20640;-68